sensor_id;sensor_type;location;lat;lon;timestamp;temperature;humidity
7248;DHT22;3665;51.034;13.642;2023-05-07T00:10:44;8.90;91.80
7248;DHT22;3665;51.034;13.642;2023-05-07T00:15:39;8.90;1.00
7248;DHT22;3665;51.034;13.642;2023-05-07T00:20:49;8.70;1.00
7248;DHT22;3665;51.034;13.642;2023-05-07T00:26:26;8.80;99.90
7248;DHT22;3665;51.034;13.642;2023-05-07T00:31:25;8.60;20.30
7248;DHT22;3665;51.034;13.642;2023-05-07T00:36:11;8.70;99.90
7248;DHT22;3665;51.034;13.642;2023-05-07T00:40:59;8.70;99.90
7248;DHT22;3665;51.034;13.642;2023-05-07T00:45:50;8.60;99.90
7248;DHT22;3665;51.034;13.642;2023-05-07T00:50:43;8.60;99.90
7248;DHT22;3665;51.034;13.642;2023-05-07T00:55:42;8.60;99.90
7248;DHT22;3665;51.034;13.642;2023-05-07T01:00:31;8.60;99.90
7248;DHT22;3665;51.034;13.642;2023-05-07T01:05:38;8.70;99.90
7248;DHT22;3665;51.034;13.642;2023-05-07T01:10:35;8.60;99.90
7248;DHT22;3665;51.034;13.642;2023-05-07T03:50:13;8.20;99.90
7248;DHT22;3665;51.034;13.642;2023-05-07T03:55:25;8.20;99.90
7248;DHT22;3665;51.034;13.642;2023-05-07T04:19:12;8.10;99.90
7248;DHT22;3665;51.034;13.642;2023-05-07T04:25:24;8.20;99.90
7248;DHT22;3665;51.034;13.642;2023-05-07T05:00:37;8.40;1.00
7248;DHT22;3665;51.034;13.642;2023-05-07T05:06:05;8.40;1.00
7248;DHT22;3665;51.034;13.642;2023-05-07T05:10:53;8.50;1.00
7248;DHT22;3665;51.034;13.642;2023-05-07T05:15:43;8.60;99.90
7248;DHT22;3665;51.034;13.642;2023-05-07T05:20:28;8.70;1.00
7248;DHT22;3665;51.034;13.642;2023-05-07T05:25:16;8.80;1.00
7248;DHT22;3665;51.034;13.642;2023-05-07T05:30:05;8.80;99.90
7248;DHT22;3665;51.034;13.642;2023-05-07T05:34:55;8.80;99.90
7248;DHT22;3665;51.034;13.642;2023-05-07T05:39:40;8.90;99.90
7248;DHT22;3665;51.034;13.642;2023-05-07T05:44:44;9.00;99.90
7248;DHT22;3665;51.034;13.642;2023-05-07T05:49:33;9.00;55.40
7248;DHT22;3665;51.034;13.642;2023-05-07T05:54:21;9.10;64.40
7248;DHT22;3665;51.034;13.642;2023-05-07T05:59:13;9.30;28.20
7248;DHT22;3665;51.034;13.642;2023-05-07T06:04:13;9.30;1.00
7248;DHT22;3665;51.034;13.642;2023-05-07T06:09:00;9.30;1.00
7248;DHT22;3665;51.034;13.642;2023-05-07T06:14:06;9.40;1.00
7248;DHT22;3665;51.034;13.642;2023-05-07T06:18:51;9.40;1.00
7248;DHT22;3665;51.034;13.642;2023-05-07T06:23:39;9.20;1.00
7248;DHT22;3665;51.034;13.642;2023-05-07T06:28:29;9.20;1.00
7248;DHT22;3665;51.034;13.642;2023-05-07T06:33:34;9.10;1.00
7248;DHT22;3665;51.034;13.642;2023-05-07T06:38:19;9.00;1.00
7248;DHT22;3665;51.034;13.642;2023-05-07T06:43:31;9.10;1.00
7248;DHT22;3665;51.034;13.642;2023-05-07T06:49:08;9.20;1.00
7248;DHT22;3665;51.034;13.642;2023-05-07T06:54:21;9.20;1.00
7248;DHT22;3665;51.034;13.642;2023-05-07T06:59:39;9.30;1.00
7248;DHT22;3665;51.034;13.642;2023-05-07T07:05:17;9.30;1.00
7248;DHT22;3665;51.034;13.642;2023-05-07T07:10:05;9.30;1.00
7248;DHT22;3665;51.034;13.642;2023-05-07T07:14:56;9.40;1.00
7248;DHT22;3665;51.034;13.642;2023-05-07T07:19:56;9.30;1.00
7248;DHT22;3665;51.034;13.642;2023-05-07T07:24:48;9.30;1.00
7248;DHT22;3665;51.034;13.642;2023-05-07T07:29:41;9.40;1.00
7248;DHT22;3665;51.034;13.642;2023-05-07T07:34:58;9.50;1.00
7248;DHT22;3665;51.034;13.642;2023-05-07T07:39:57;9.30;1.00
7248;DHT22;3665;51.034;13.642;2023-05-07T07:44:44;9.20;1.00
7248;DHT22;3665;51.034;13.642;2023-05-07T07:49:31;9.10;1.00
7248;DHT22;3665;51.034;13.642;2023-05-07T07:54:19;9.00;1.00
7248;DHT22;3665;51.034;13.642;2023-05-07T07:59:42;9.10;1.00
7248;DHT22;3665;51.034;13.642;2023-05-07T08:10:04;9.40;1.00
7248;DHT22;3665;51.034;13.642;2023-05-07T08:15:00;9.70;1.00
7248;DHT22;3665;51.034;13.642;2023-05-07T08:25:56;10.20;1.00
7248;DHT22;3665;51.034;13.642;2023-05-07T08:37:23;10.50;1.00
7248;DHT22;3665;51.034;13.642;2023-05-07T08:42:23;10.30;1.00
7248;DHT22;3665;51.034;13.642;2023-05-07T08:53:38;10.50;1.00
7248;DHT22;3665;51.034;13.642;2023-05-07T08:58:58;10.60;1.00
7248;DHT22;3665;51.034;13.642;2023-05-07T09:04:30;10.90;1.00
7248;DHT22;3665;51.034;13.642;2023-05-07T09:09:49;11.20;1.00
7248;DHT22;3665;51.034;13.642;2023-05-07T09:25:35;11.70;1.00
7248;DHT22;3665;51.034;13.642;2023-05-07T09:30:38;11.40;1.00
7248;DHT22;3665;51.034;13.642;2023-05-07T09:35:44;11.30;1.00
7248;DHT22;3665;51.034;13.642;2023-05-07T09:41:06;11.60;1.00
7248;DHT22;3665;51.034;13.642;2023-05-07T09:46:24;11.60;1.00
7248;DHT22;3665;51.034;13.642;2023-05-07T09:51:48;11.70;1.00
7248;DHT22;3665;51.034;13.642;2023-05-07T09:57:03;11.60;1.00
7248;DHT22;3665;51.034;13.642;2023-05-07T10:02:07;12.00;1.00
7248;DHT22;3665;51.034;13.642;2023-05-07T10:07:11;12.30;1.00
7248;DHT22;3665;51.034;13.642;2023-05-07T10:11:57;12.80;1.00
7248;DHT22;3665;51.034;13.642;2023-05-07T10:17:15;13.00;1.00
7248;DHT22;3665;51.034;13.642;2023-05-07T10:22:13;13.30;1.00
7248;DHT22;3665;51.034;13.642;2023-05-07T10:27:56;13.30;1.00
7248;DHT22;3665;51.034;13.642;2023-05-07T10:32:46;13.00;1.00
7248;DHT22;3665;51.034;13.642;2023-05-07T10:37:41;12.90;1.00
7248;DHT22;3665;51.034;13.642;2023-05-07T10:42:35;13.40;1.00
7248;DHT22;3665;51.034;13.642;2023-05-07T10:47:25;13.60;1.00
7248;DHT22;3665;51.034;13.642;2023-05-07T10:52:18;13.50;1.00
7248;DHT22;3665;51.034;13.642;2023-05-07T10:57:33;13.50;1.00
7248;DHT22;3665;51.034;13.642;2023-05-07T11:03:06;13.30;1.00
7248;DHT22;3665;51.034;13.642;2023-05-07T11:08:21;13.40;1.00
7248;DHT22;3665;51.034;13.642;2023-05-07T11:13:42;13.50;1.00
7248;DHT22;3665;51.034;13.642;2023-05-07T11:18:53;13.80;1.00
7248;DHT22;3665;51.034;13.642;2023-05-07T11:24:03;13.60;1.00
7248;DHT22;3665;51.034;13.642;2023-05-07T11:29:21;13.50;1.00
7248;DHT22;3665;51.034;13.642;2023-05-07T11:34:28;13.60;1.00
7248;DHT22;3665;51.034;13.642;2023-05-07T11:39:42;13.50;1.00
7248;DHT22;3665;51.034;13.642;2023-05-07T11:44:43;13.60;1.00
7248;DHT22;3665;51.034;13.642;2023-05-07T11:49:31;13.50;1.00
7248;DHT22;3665;51.034;13.642;2023-05-07T11:54:20;13.80;1.00
7248;DHT22;3665;51.034;13.642;2023-05-07T11:59:07;14.00;1.00
7248;DHT22;3665;51.034;13.642;2023-05-07T12:03:56;14.20;1.00
7248;DHT22;3665;51.034;13.642;2023-05-07T12:09:06;14.30;1.00
7248;DHT22;3665;51.034;13.642;2023-05-07T12:14:40;14.50;1.00
7248;DHT22;3665;51.034;13.642;2023-05-07T12:19:26;14.60;1.00
7248;DHT22;3665;51.034;13.642;2023-05-07T12:24:18;14.70;1.00
7248;DHT22;3665;51.034;13.642;2023-05-07T12:29:22;14.90;1.00
7248;DHT22;3665;51.034;13.642;2023-05-07T12:34:07;15.50;1.00
7248;DHT22;3665;51.034;13.642;2023-05-07T12:39:01;15.60;1.00
7248;DHT22;3665;51.034;13.642;2023-05-07T12:43:56;15.10;1.00
7248;DHT22;3665;51.034;13.642;2023-05-07T12:48:44;14.80;1.00
7248;DHT22;3665;51.034;13.642;2023-05-07T12:53:33;14.60;1.00
7248;DHT22;3665;51.034;13.642;2023-05-07T12:58:24;14.30;1.00
7248;DHT22;3665;51.034;13.642;2023-05-07T13:03:08;14.20;1.00
7248;DHT22;3665;51.034;13.642;2023-05-07T13:07:58;14.00;1.00
7248;DHT22;3665;51.034;13.642;2023-05-07T13:12:45;14.40;1.00
7248;DHT22;3665;51.034;13.642;2023-05-07T13:17:34;15.30;1.00
7248;DHT22;3665;51.034;13.642;2023-05-07T13:22:20;15.50;1.00
7248;DHT22;3665;51.034;13.642;2023-05-07T13:32:47;15.60;1.00
7248;DHT22;3665;51.034;13.642;2023-05-07T13:37:41;15.10;1.00
7248;DHT22;3665;51.034;13.642;2023-05-07T13:42:39;14.60;1.00
7248;DHT22;3665;51.034;13.642;2023-05-07T13:47:26;14.80;1.00
7248;DHT22;3665;51.034;13.642;2023-05-07T13:52:14;14.60;1.00
7248;DHT22;3665;51.034;13.642;2023-05-07T13:57:08;14.70;1.00
7248;DHT22;3665;51.034;13.642;2023-05-07T14:02:05;14.60;1.00
7248;DHT22;3665;51.034;13.642;2023-05-07T14:06:51;14.50;1.00
7248;DHT22;3665;51.034;13.642;2023-05-07T14:11:44;15.00;1.00
7248;DHT22;3665;51.034;13.642;2023-05-07T14:17:04;15.30;1.00
7248;DHT22;3665;51.034;13.642;2023-05-07T14:22:26;15.10;1.00
7248;DHT22;3665;51.034;13.642;2023-05-07T14:27:14;14.80;1.00
7248;DHT22;3665;51.034;13.642;2023-05-07T14:31:58;14.60;1.00
7248;DHT22;3665;51.034;13.642;2023-05-07T14:36:44;14.70;1.00
7248;DHT22;3665;51.034;13.642;2023-05-07T14:41:32;14.60;1.00
7248;DHT22;3665;51.034;13.642;2023-05-07T14:46:39;14.40;1.00
7248;DHT22;3665;51.034;13.642;2023-05-07T14:57:36;15.20;1.00
7248;DHT22;3665;51.034;13.642;2023-05-07T15:02:23;14.90;1.00
7248;DHT22;3665;51.034;13.642;2023-05-07T15:07:08;15.10;1.00
7248;DHT22;3665;51.034;13.642;2023-05-07T15:11:57;14.90;1.00
7248;DHT22;3665;51.034;13.642;2023-05-07T15:16:48;14.90;1.00
7248;DHT22;3665;51.034;13.642;2023-05-07T15:21:50;14.70;1.00
7248;DHT22;3665;51.034;13.642;2023-05-07T15:26:41;14.60;1.00
7248;DHT22;3665;51.034;13.642;2023-05-07T15:31:25;14.70;1.00
7248;DHT22;3665;51.034;13.642;2023-05-07T15:36:12;14.90;1.00
7248;DHT22;3665;51.034;13.642;2023-05-07T15:41:00;14.90;1.00
7248;DHT22;3665;51.034;13.642;2023-05-07T15:45:51;14.50;1.00
7248;DHT22;3665;51.034;13.642;2023-05-07T15:50:35;14.40;1.00
7248;DHT22;3665;51.034;13.642;2023-05-07T16:00:35;14.10;1.00
7248;DHT22;3665;51.034;13.642;2023-05-07T16:05:34;13.90;1.00
7248;DHT22;3665;51.034;13.642;2023-05-07T16:10:21;13.80;1.00
7248;DHT22;3665;51.034;13.642;2023-05-07T16:15:08;13.70;1.00
7248;DHT22;3665;51.034;13.642;2023-05-07T16:19:57;13.40;1.00
7248;DHT22;3665;51.034;13.642;2023-05-07T16:24:46;13.00;1.00
7248;DHT22;3665;51.034;13.642;2023-05-07T16:29:32;13.00;1.00
7248;DHT22;3665;51.034;13.642;2023-05-07T16:34:24;13.00;1.00
7248;DHT22;3665;51.034;13.642;2023-05-07T16:39:47;13.10;1.00
7248;DHT22;3665;51.034;13.642;2023-05-07T16:44:37;13.10;1.00
7248;DHT22;3665;51.034;13.642;2023-05-07T16:49:48;12.80;1.00
7248;DHT22;3665;51.034;13.642;2023-05-07T16:54:38;12.40;1.00
7248;DHT22;3665;51.034;13.642;2023-05-07T16:59:26;12.40;1.00
7248;DHT22;3665;51.034;13.642;2023-05-07T17:04:13;12.40;1.00
7248;DHT22;3665;51.034;13.642;2023-05-07T17:09:16;12.60;1.00
7248;DHT22;3665;51.034;13.642;2023-05-07T17:14:05;12.40;1.00
7248;DHT22;3665;51.034;13.642;2023-05-07T17:18:52;12.20;1.00
7248;DHT22;3665;51.034;13.642;2023-05-07T17:23:41;11.90;1.00
7248;DHT22;3665;51.034;13.642;2023-05-07T17:28:34;11.50;1.00
7248;DHT22;3665;51.034;13.642;2023-05-07T17:33:17;10.90;1.00
7248;DHT22;3665;51.034;13.642;2023-05-07T17:38:08;10.70;1.00
7248;DHT22;3665;51.034;13.642;2023-05-07T17:42:52;10.40;1.00
7248;DHT22;3665;51.034;13.642;2023-05-07T17:47:41;10.20;1.00
7248;DHT22;3665;51.034;13.642;2023-05-07T17:52:29;10.00;1.00
7248;DHT22;3665;51.034;13.642;2023-05-07T17:57:18;9.90;1.00
7248;DHT22;3665;51.034;13.642;2023-05-07T18:02:05;9.80;1.00
7248;DHT22;3665;51.034;13.642;2023-05-07T18:06:52;9.70;1.00
7248;DHT22;3665;51.034;13.642;2023-05-07T18:11:42;9.60;1.00
7248;DHT22;3665;51.034;13.642;2023-05-07T18:16:30;9.30;1.00
7248;DHT22;3665;51.034;13.642;2023-05-07T18:21:18;9.30;1.00
7248;DHT22;3665;51.034;13.642;2023-05-07T18:26:06;9.20;1.00
7248;DHT22;3665;51.034;13.642;2023-05-07T18:30:52;9.00;1.00
7248;DHT22;3665;51.034;13.642;2023-05-07T18:35:41;8.90;1.00
7248;DHT22;3665;51.034;13.642;2023-05-07T18:40:30;8.70;1.00
7248;DHT22;3665;51.034;13.642;2023-05-07T18:45:18;8.60;1.00
7248;DHT22;3665;51.034;13.642;2023-05-07T18:50:05;8.50;1.00
7248;DHT22;3665;51.034;13.642;2023-05-07T18:54:53;8.40;1.00
7248;DHT22;3665;51.034;13.642;2023-05-07T18:59:40;8.30;1.00
7248;DHT22;3665;51.034;13.642;2023-05-07T19:04:27;8.20;1.00
7248;DHT22;3665;51.034;13.642;2023-05-07T19:09:17;8.00;1.00
7248;DHT22;3665;51.034;13.642;2023-05-07T19:14:21;8.00;1.00
7248;DHT22;3665;51.034;13.642;2023-05-07T19:19:08;7.90;1.00
7248;DHT22;3665;51.034;13.642;2023-05-07T19:24:01;7.90;1.00
7248;DHT22;3665;51.034;13.642;2023-05-07T19:28:44;7.90;1.00
7248;DHT22;3665;51.034;13.642;2023-05-07T19:33:48;7.90;1.00
7248;DHT22;3665;51.034;13.642;2023-05-07T19:38:35;7.90;1.00
7248;DHT22;3665;51.034;13.642;2023-05-07T19:43:24;7.70;1.00
7248;DHT22;3665;51.034;13.642;2023-05-07T19:48:17;7.60;1.00
7248;DHT22;3665;51.034;13.642;2023-05-07T19:53:02;7.60;1.00
7248;DHT22;3665;51.034;13.642;2023-05-07T19:57:49;7.60;1.00
7248;DHT22;3665;51.034;13.642;2023-05-07T20:02:39;7.50;1.00
7248;DHT22;3665;51.034;13.642;2023-05-07T20:07:26;7.50;1.00
7248;DHT22;3665;51.034;13.642;2023-05-07T20:12:13;7.40;1.00
7248;DHT22;3665;51.034;13.642;2023-05-07T20:17:21;7.30;1.00
7248;DHT22;3665;51.034;13.642;2023-05-07T20:22:05;7.40;1.00
7248;DHT22;3665;51.034;13.642;2023-05-07T20:26:52;7.20;1.00
7248;DHT22;3665;51.034;13.642;2023-05-07T20:31:40;7.20;1.00
7248;DHT22;3665;51.034;13.642;2023-05-07T20:36:30;7.20;1.00
7248;DHT22;3665;51.034;13.642;2023-05-07T20:41:17;7.00;1.00
7248;DHT22;3665;51.034;13.642;2023-05-07T20:46:21;6.90;1.00
7248;DHT22;3665;51.034;13.642;2023-05-07T20:51:26;7.10;1.00
7248;DHT22;3665;51.034;13.642;2023-05-07T20:56:13;7.40;1.00
7248;DHT22;3665;51.034;13.642;2023-05-07T21:01:03;7.60;1.00
7248;DHT22;3665;51.034;13.642;2023-05-07T21:05:51;7.70;1.00
7248;DHT22;3665;51.034;13.642;2023-05-07T21:10:56;7.80;1.00
7248;DHT22;3665;51.034;13.642;2023-05-07T21:15:41;7.70;1.00
7248;DHT22;3665;51.034;13.642;2023-05-07T21:20:28;7.60;1.00
7248;DHT22;3665;51.034;13.642;2023-05-07T21:25:18;7.60;1.00
7248;DHT22;3665;51.034;13.642;2023-05-07T21:30:12;7.40;1.00
7248;DHT22;3665;51.034;13.642;2023-05-07T21:35:13;7.30;1.00
7248;DHT22;3665;51.034;13.642;2023-05-07T21:39:57;7.10;1.00
7248;DHT22;3665;51.034;13.642;2023-05-07T21:44:43;6.90;1.00
7248;DHT22;3665;51.034;13.642;2023-05-07T21:49:36;6.90;1.00
7248;DHT22;3665;51.034;13.642;2023-05-07T21:54:22;6.90;1.00
7248;DHT22;3665;51.034;13.642;2023-05-07T21:59:08;6.70;1.00
7248;DHT22;3665;51.034;13.642;2023-05-07T22:03:58;6.60;1.00
7248;DHT22;3665;51.034;13.642;2023-05-07T22:08:46;6.70;1.00
7248;DHT22;3665;51.034;13.642;2023-05-07T22:13:32;6.60;1.00
7248;DHT22;3665;51.034;13.642;2023-05-07T22:18:21;6.70;1.00
7248;DHT22;3665;51.034;13.642;2023-05-07T22:23:09;6.90;1.00
7248;DHT22;3665;51.034;13.642;2023-05-07T22:27:57;7.00;1.00
7248;DHT22;3665;51.034;13.642;2023-05-07T22:32:50;7.00;1.00
7248;DHT22;3665;51.034;13.642;2023-05-07T22:37:33;7.00;1.00
7248;DHT22;3665;51.034;13.642;2023-05-07T22:42:23;7.00;1.00
7248;DHT22;3665;51.034;13.642;2023-05-07T22:47:09;7.00;1.00
7248;DHT22;3665;51.034;13.642;2023-05-07T22:51:56;6.90;1.00
7248;DHT22;3665;51.034;13.642;2023-05-07T22:56:46;7.00;1.00
7248;DHT22;3665;51.034;13.642;2023-05-07T23:01:35;7.10;1.00
7248;DHT22;3665;51.034;13.642;2023-05-07T23:06:38;6.90;1.00
7248;DHT22;3665;51.034;13.642;2023-05-07T23:11:27;6.90;1.00
7248;DHT22;3665;51.034;13.642;2023-05-07T23:16:12;6.90;1.00
7248;DHT22;3665;51.034;13.642;2023-05-07T23:21:01;6.80;1.00
7248;DHT22;3665;51.034;13.642;2023-05-07T23:25:50;6.80;1.00
7248;DHT22;3665;51.034;13.642;2023-05-07T23:30:37;6.80;1.00
7248;DHT22;3665;51.034;13.642;2023-05-07T23:35:26;6.70;1.00
7248;DHT22;3665;51.034;13.642;2023-05-07T23:40:15;6.50;1.00
7248;DHT22;3665;51.034;13.642;2023-05-07T23:45:18;6.20;1.00
7248;DHT22;3665;51.034;13.642;2023-05-07T23:50:06;6.00;1.00
7248;DHT22;3665;51.034;13.642;2023-05-07T23:54:54;5.70;1.00
7248;DHT22;3665;51.034;13.642;2023-05-07T23:59:43;5.50;1.00
